Time;durP1;ratioP1;P1;durP2;ratioP2;P2;SDS_P1;SDS_P2;PMS_P1;PMS_P2;Temp;Humidity;BMP_temperature;BMP_pressure;BME280_temperature;BME280_humidity;BME280_pressure;Samples;Min_cycle;Max_cycle;Signal;HPM_P1;HPM_P2
2023/06/12 00:01:40;;;;;;;;;;;20.60;62.90;;;;;;6083940;23;19930;-96
2023/06/12 00:04:15;;;;;;;;;;;20.60;62.90;;;;;;6056233;23;19906;-96
2023/06/12 00:06:50;;;;;;;;;;;20.50;62.80;;;;;;6079437;23;19905;-96
2023/06/12 00:09:16;;;;;;;;;;;20.60;63.00;;;;;;6053845;23;19910;-96
2023/06/12 00:11:47;;;;;;;;;;;20.50;63.00;;;;;;6054091;23;19905;-95
2023/06/12 00:14:15;;;;;;;;;;;20.50;63.00;;;;;;6055974;23;19914;-94
2023/06/12 00:16:53;;;;;;;;;;;20.50;63.10;;;;;;6081647;23;19905;-94
2023/06/12 00:19:18;;;;;;;;;;;20.50;63.20;;;;;;6054074;23;20256;-96
2023/06/12 00:22:10;;;;;;;;;;;20.50;63.20;;;;;;6053638;23;20118;-96
2023/06/12 00:24:45;;;;;;;;;;;20.50;63.20;;;;;;6064550;23;19959;-95
2023/06/12 00:27:32;;;;;;;;;;;20.50;63.30;;;;;;6086378;23;19909;-95
2023/06/12 00:29:57;;;;;;;;;;;20.50;63.20;;;;;;6138759;23;19909;-95
2023/06/12 00:32:23;;;;;;;;;;;20.50;63.20;;;;;;6137529;23;19912;-95
2023/06/12 00:34:51;;;;;;;;;;;20.50;63.30;;;;;;6137679;23;19905;-95
2023/06/12 00:37:29;;;;;;;;;;;20.50;63.30;;;;;;6136144;23;19908;-96
2023/06/12 00:40:06;;;;;;;;;;;20.50;63.30;;;;;;6138725;23;19918;-95
2023/06/12 00:42:45;;;;;;;;;;;20.50;63.30;;;;;;6136566;23;19916;-96
2023/06/12 00:45:17;;;;;;;;;;;20.50;63.50;;;;;;6135534;23;19909;-96
2023/06/12 00:47:45;;;;;;;;;;;20.50;63.50;;;;;;6134850;23;19909;-95
2023/06/12 00:50:17;;;;;;;;;;;20.50;63.40;;;;;;6131605;23;19967;-96
2023/06/12 00:53:17;;;;;;;;;;;20.40;63.40;;;;;;6126818;23;19909;-96
2023/06/12 00:55:45;;;;;;;;;;;20.40;63.50;;;;;;6135101;23;19905;-95
2023/06/12 00:58:13;;;;;;;;;;;20.50;63.50;;;;;;6134864;23;20299;-96
2023/06/12 01:00:54;;;;;;;;;;;20.40;63.50;;;;;;6135297;23;19913;-95
2023/06/12 01:03:24;;;;;;;;;;;20.40;63.60;;;;;;6135960;23;19909;-96
2023/06/12 01:05:50;;;;;;;;;;;20.40;63.60;;;;;;6138122;23;19904;-96
2023/06/12 01:08:28;;;;;;;;;;;20.40;63.60;;;;;;6136753;23;19921;-96
2023/06/12 01:11:03;;;;;;;;;;;20.50;63.70;;;;;;6134405;23;19905;-94
2023/06/12 01:13:36;;;;;;;;;;;20.40;63.70;;;;;;6134533;23;19975;-96
2023/06/12 01:16:05;;;;;;;;;;;20.40;63.80;;;;;;6134533;23;19996;-96
2023/06/12 01:18:32;;;;;;;;;;;20.40;63.80;;;;;;6137391;23;19905;-96
2023/06/12 01:20:58;;;;;;;;;;;20.40;63.80;;;;;;6136359;23;19913;-96
2023/06/12 01:23:31;;;;;;;;;;;20.40;63.70;;;;;;6136963;23;19929;-96
2023/06/12 01:25:56;;;;;;;;;;;20.60;63.90;;;;;;6137631;23;19936;-96
2023/06/12 01:28:22;;;;;;;;;;;20.40;63.80;;;;;;6135322;23;19928;-95
2023/06/12 01:31:08;;;;;;;;;;;20.40;63.80;;;;;;6132196;23;19915;-96
2023/06/12 01:33:36;;;;;;;;;;;20.40;63.90;;;;;;6133988;23;19904;-96
2023/06/12 01:36:07;;;;;;;;;;;20.40;63.90;;;;;;6135549;23;19911;-92
2023/06/12 01:38:34;;;;;;;;;;;20.40;64.00;;;;;;6138852;23;19905;-95
2023/06/12 01:41:05;;;;;;;;;;;20.40;64.00;;;;;;6136041;23;19919;-96
2023/06/12 01:43:30;;;;;;;;;;;20.30;63.90;;;;;;6134516;23;19929;-96
2023/06/12 01:45:55;;;;;;;;;;;20.30;64.00;;;;;;6133629;23;19928;-94
2023/06/12 01:48:21;;;;;;;;;;;20.40;64.10;;;;;;6134697;23;19909;-95
2023/06/12 01:50:47;;;;;;;;;;;20.30;64.10;;;;;;6133892;23;19909;-96
2023/06/12 01:53:16;;;;;;;;;;;20.30;64.10;;;;;;6132192;23;19909;-96
2023/06/12 01:55:44;;;;;;;;;;;20.30;64.20;;;;;;6134364;23;19956;-96
2023/06/12 01:58:10;;;;;;;;;;;20.30;64.20;;;;;;6133310;23;19905;-95
2023/06/12 02:00:38;;;;;;;;;;;20.30;64.30;;;;;;6131550;23;19931;-96
2023/06/12 02:03:04;;;;;;;;;;;20.30;64.20;;;;;;6131461;23;19911;-96
2023/06/12 02:05:30;;;;;;;;;;;20.30;64.20;;;;;;6134005;23;19920;-96
2023/06/12 02:07:55;;;;;;;;;;;20.30;64.30;;;;;;6132590;23;19905;-95
2023/06/12 02:10:21;;;;;;;;;;;20.30;64.40;;;;;;6130683;23;19987;-95
2023/06/12 02:12:46;;;;;;;;;;;20.30;64.30;;;;;;6129387;23;19908;-96
2023/06/12 02:15:12;;;;;;;;;;;20.30;64.20;;;;;;6128168;23;19913;-95
2023/06/12 02:17:38;;;;;;;;;;;20.30;64.40;;;;;;6124809;23;19991;-95
2023/06/12 02:20:06;;;;;;;;;;;20.30;64.40;;;;;;6129332;23;19905;-95
2023/06/12 02:22:32;;;;;;;;;;;20.30;64.40;;;;;;6129030;23;19916;-96
2023/06/12 02:24:58;;;;;;;;;;;20.20;64.50;;;;;;6129815;23;19909;-96
2023/06/12 02:27:23;;;;;;;;;;;20.30;64.40;;;;;;6128928;23;19905;-96
2023/06/12 02:29:49;;;;;;;;;;;20.30;64.60;;;;;;6129668;23;19908;-96
2023/06/12 02:32:14;;;;;;;;;;;20.20;64.50;;;;;;6127596;23;19912;-96
2023/06/12 02:34:40;;;;;;;;;;;20.20;64.50;;;;;;6125319;23;19912;-95
2023/06/12 02:37:08;;;;;;;;;;;20.30;64.50;;;;;;6127166;23;19991;-96
2023/06/12 02:39:34;;;;;;;;;;;20.20;64.50;;;;;;6126641;23;19909;-95
2023/06/12 02:42:00;;;;;;;;;;;20.20;64.60;;;;;;6127333;23;19932;-96
2023/06/12 02:44:25;;;;;;;;;;;20.30;64.70;;;;;;6126612;23;19909;-94
2023/06/12 02:46:53;;;;;;;;;;;20.20;64.60;;;;;;6124841;23;19905;-96
2023/06/12 02:49:22;;;;;;;;;;;20.20;64.50;;;;;;6126415;23;19920;-95
2023/06/12 02:51:47;;;;;;;;;;;20.20;64.70;;;;;;6127519;23;19909;-95
2023/06/12 02:54:17;;;;;;;;;;;20.20;64.70;;;;;;6125563;23;19905;-96
2023/06/12 02:56:46;;;;;;;;;;;20.20;64.70;;;;;;6127430;23;19920;-95
2023/06/12 02:59:16;;;;;;;;;;;20.20;64.80;;;;;;6126186;23;20219;-95
2023/06/12 03:01:45;;;;;;;;;;;20.80;65.30;;;;;;6126467;23;19908;-96
2023/06/12 03:04:20;;;;;;;;;;;20.20;64.80;;;;;;6127618;23;19905;-96
2023/06/12 03:06:51;;;;;;;;;;;20.20;64.70;;;;;;6126258;23;19980;-94
2023/06/12 03:09:18;;;;;;;;;;;20.20;65.00;;;;;;6125727;23;19993;-95
2023/06/12 03:11:44;;;;;;;;;;;20.20;64.90;;;;;;6125924;23;20242;-96
2023/06/12 03:14:09;;;;;;;;;;;20.20;65.20;;;;;;6126132;23;19913;-96
2023/06/12 03:16:36;;;;;;;;;;;20.20;65.10;;;;;;6125921;23;19984;-96
2023/06/12 03:19:02;;;;;;;;;;;20.20;65.20;;;;;;6126233;23;19912;-94
2023/06/12 03:21:27;;;;;;;;;;;20.10;64.90;;;;;;6131592;23;19913;-96
2023/06/12 03:23:53;;;;;;;;;;;20.20;65.00;;;;;;6127095;23;19905;-96
2023/06/12 03:26:19;;;;;;;;;;;20.30;65.10;;;;;;6125673;23;20396;-96
2023/06/12 03:28:45;;;;;;;;;;;20.20;65.30;;;;;;6128008;23;19984;-94
2023/06/12 03:31:14;;;;;;;;;;;20.10;65.00;;;;;;6127023;23;19911;-95
2023/06/12 03:33:42;;;;;;;;;;;21.00;65.70;;;;;;6134160;23;19966;-96
2023/06/12 03:36:08;;;;;;;;;;;20.80;65.70;;;;;;6127679;23;20226;-95
2023/06/12 03:38:34;;;;;;;;;;;20.10;65.20;;;;;;6128630;23;20450;-96
2023/06/12 03:41:17;;;;;;;;;;;20.10;65.40;;;;;;6132972;23;22330;-96
2023/06/12 03:43:43;;;;;;;;;;;20.10;65.40;;;;;;6131444;23;20456;-96
2023/06/12 03:46:09;;;;;;;;;;;20.10;65.30;;;;;;6129564;23;19912;-96
2023/06/12 03:48:35;;;;;;;;;;;20.10;65.40;;;;;;6130143;23;19931;-95
2023/06/12 03:51:00;;;;;;;;;;;20.10;65.20;;;;;;6130207;23;19941;-96
2023/06/12 03:53:29;;;;;;;;;;;20.10;65.50;;;;;;6129402;23;20007;-94
2023/06/12 03:55:55;;;;;;;;;;;20.10;65.40;;;;;;6129315;23;19909;-96
2023/06/12 03:58:21;;;;;;;;;;;20.10;65.40;;;;;;6130481;23;19955;-94
2023/06/12 04:00:47;;;;;;;;;;;20.10;65.40;;;;;;6128770;23;20250;-95
2023/06/12 04:03:18;;;;;;;;;;;20.10;65.60;;;;;;6137350;23;20341;-94
2023/06/12 04:05:55;;;;;;;;;;;20.10;65.40;;;;;;6133614;23;19909;-96
2023/06/12 04:08:22;;;;;;;;;;;20.10;65.60;;;;;;6133270;23;19920;-96
2023/06/12 04:10:50;;;;;;;;;;;20.00;65.50;;;;;;6136397;23;19905;-96
2023/06/12 04:13:18;;;;;;;;;;;20.60;65.80;;;;;;6136954;23;19991;-96
2023/06/12 04:15:44;;;;;;;;;;;20.10;65.40;;;;;;6131571;23;19905;-96
2023/06/12 04:18:10;;;;;;;;;;;20.00;65.60;;;;;;6133552;23;19976;-95
2023/06/12 04:20:38;;;;;;;;;;;20.00;65.60;;;;;;6132446;23;19915;-95
2023/06/12 04:23:04;;;;;;;;;;;20.00;66.50;;;;;;6135472;23;19913;-94
2023/06/12 04:25:41;;;;;;;;;;;20.10;65.60;;;;;;6135877;23;19905;-96
2023/06/12 04:28:09;;;;;;;;;;;20.80;66.10;;;;;;6135936;23;19992;-96
2023/06/12 04:30:37;;;;;;;;;;;20.00;65.60;;;;;;6134452;23;19905;-95
2023/06/12 04:33:03;;;;;;;;;;;20.00;65.70;;;;;;6135121;23;19983;-96
2023/06/12 04:35:37;;;;;;;;;;;20.00;65.70;;;;;;6134225;23;19916;-95
2023/06/12 04:38:38;;;;;;;;;;;20.00;65.80;;;;;;6137268;23;19929;-96
2023/06/12 04:41:13;;;;;;;;;;;20.00;65.90;;;;;;6118368;23;19909;-94
2023/06/12 04:43:39;;;;;;;;;;;20.00;66.20;;;;;;6134923;23;19940;-93
2023/06/12 04:46:07;;;;;;;;;;;20.00;66.20;;;;;;6137950;23;19912;-95
2023/06/12 04:48:33;;;;;;;;;;;20.00;66.30;;;;;;6133899;23;19905;-96
2023/06/12 04:51:04;;;;;;;;;;;20.00;66.40;;;;;;6136257;23;19915;-96
2023/06/12 04:53:30;;;;;;;;;;;20.00;66.40;;;;;;6134496;23;19909;-96
2023/06/12 04:55:56;;;;;;;;;;;20.10;66.50;;;;;;6136509;23;19914;-96
2023/06/12 05:02:02;;;;;;;;;;;20.30;66.80;;;;;;6080047;23;19914;-96
2023/06/12 05:04:30;;;;;;;;;;;20.00;66.70;;;;;;6080381;23;19906;-95
2023/06/12 05:07:16;;;;;;;;;;;20.10;66.90;;;;;;6079620;23;19965;-96
2023/06/12 05:10:03;;;;;;;;;;;20.10;67.70;;;;;;6078347;23;19909;-96
2023/06/12 05:12:35;;;;;;;;;;;20.10;67.00;;;;;;6080728;23;19914;-96
2023/06/12 05:15:15;;;;;;;;;;;20.70;67.30;;;;;;6078101;23;19921;-96
2023/06/12 05:17:41;;;;;;;;;;;20.10;67.00;;;;;;6053474;23;19905;-96
2023/06/12 05:20:08;;;;;;;;;;;20.10;67.00;;;;;;6080166;23;19910;-95
2023/06/12 05:23:11;;;;;;;;;;;20.30;67.20;;;;;;6080636;23;19909;-96
2023/06/12 05:25:46;;;;;;;;;;;20.10;67.00;;;;;;6060636;23;19909;-96
2023/06/12 05:33:17;;;;;;;;;;;20.10;67.20;;;;;;6165605;23;19920;-95
2023/06/12 05:35:44;;;;;;;;;;;20.10;67.30;;;;;;6136233;23;19982;-96
2023/06/12 05:38:15;;;;;;;;;;;20.20;67.50;;;;;;6131807;23;19916;-95
2023/06/12 05:40:41;;;;;;;;;;;20.50;67.70;;;;;;6136299;23;19926;-94
2023/06/12 05:43:15;;;;;;;;;;;20.20;67.50;;;;;;6137523;23;20005;-96
2023/06/12 05:45:40;;;;;;;;;;;20.20;67.60;;;;;;6136159;23;19931;-96
2023/06/12 05:48:09;;;;;;;;;;;20.20;67.70;;;;;;6111675;23;19909;-96
2023/06/12 05:50:36;;;;;;;;;;;20.20;67.70;;;;;;6142892;23;19909;-95
2023/06/12 05:53:05;;;;;;;;;;;20.20;67.70;;;;;;6140204;23;19909;-95
2023/06/12 05:55:35;;;;;;;;;;;20.20;67.70;;;;;;6131965;23;19905;-95
2023/06/12 05:58:04;;;;;;;;;;;20.30;67.80;;;;;;6115675;23;19912;-96
2023/06/12 06:00:32;;;;;;;;;;;20.30;67.90;;;;;;6111950;23;19920;-95
2023/06/12 06:03:00;;;;;;;;;;;20.20;67.90;;;;;;6113655;23;19905;-95
2023/06/12 06:05:26;;;;;;;;;;;20.30;68.00;;;;;;6114820;23;20008;-96
2023/06/12 06:07:53;;;;;;;;;;;20.30;68.00;;;;;;6136447;23;20315;-94
2023/06/12 06:10:21;;;;;;;;;;;20.30;68.00;;;;;;6108980;23;20302;-96
2023/06/12 06:12:47;;;;;;;;;;;20.30;68.10;;;;;;6112646;23;19912;-94
2023/06/12 06:15:12;;;;;;;;;;;20.30;68.20;;;;;;6116071;23;19949;-96
2023/06/12 06:17:38;;;;;;;;;;;20.30;68.20;;;;;;6111967;23;19960;-96
2023/06/12 06:20:09;;;;;;;;;;;20.40;68.30;;;;;;6111651;23;19932;-94
2023/06/12 06:22:38;;;;;;;;;;;20.40;68.40;;;;;;6114823;23;19913;-96
2023/06/12 06:25:13;;;;;;;;;;;20.40;68.50;;;;;;6113026;23;19924;-95
2023/06/12 06:28:08;;;;;;;;;;;20.40;68.50;;;;;;6114611;23;19905;-96
2023/06/12 06:30:34;;;;;;;;;;;20.40;68.50;;;;;;5973758;24;19914;-95
2023/06/12 06:33:00;;;;;;;;;;;20.50;68.60;;;;;;6018104;23;19983;-96
2023/06/12 06:35:34;;;;;;;;;;;20.50;68.60;;;;;;6005329;23;19910;-96
2023/06/12 06:38:32;;;;;;;;;;;20.50;68.50;;;;;;6001642;23;20078;-95
2023/06/12 06:40:59;;;;;;;;;;;20.50;68.30;;;;;;5910880;24;19931;-96
2023/06/12 06:43:30;;;;;;;;;;;20.50;68.30;;;;;;5908341;24;19947;-96
2023/06/12 06:45:56;;;;;;;;;;;21.00;68.50;;;;;;5889245;24;19907;-94
2023/06/12 06:48:23;;;;;;;;;;;20.60;68.30;;;;;;5885414;24;20040;-95
2023/06/12 06:50:52;;;;;;;;;;;20.60;68.30;;;;;;5910778;24;19907;-96
2023/06/12 06:53:25;;;;;;;;;;;20.60;68.30;;;;;;5893336;24;19911;-96
2023/06/12 06:55:53;;;;;;;;;;;20.70;68.10;;;;;;5889796;24;19919;-96
2023/06/12 06:58:20;;;;;;;;;;;20.70;68.00;;;;;;5887879;24;19952;-96
2023/06/12 07:00:49;;;;;;;;;;;20.70;67.90;;;;;;5888326;24;19919;-95
2023/06/12 07:03:21;;;;;;;;;;;20.80;67.80;;;;;;5908923;24;19907;-96
2023/06/12 07:05:49;;;;;;;;;;;20.80;67.70;;;;;;5874990;23;19895;-96
2023/06/12 07:08:20;;;;;;;;;;;20.80;67.60;;;;;;5982087;23;19953;-96
2023/06/12 07:10:45;;;;;;;;;;;20.80;67.50;;;;;;5992738;23;20002;-85
2023/06/12 07:13:11;;;;;;;;;;;20.90;68.00;;;;;;6006687;23;19906;-84
2023/06/12 07:15:37;;;;;;;;;;;20.90;68.60;;;;;;5996550;23;19944;-86
2023/06/12 07:18:02;;;;;;;;;;;21.00;68.90;;;;;;6123956;23;19925;-83
2023/06/12 07:20:28;;;;;;;;;;;21.00;68.70;;;;;;6121626;23;19964;-84
2023/06/12 07:22:53;;;;;;;;;;;21.00;68.90;;;;;;6123807;23;19999;-84
2023/06/12 07:25:19;;;;;;;;;;;21.00;69.10;;;;;;6123760;23;20373;-84
2023/06/12 07:27:44;;;;;;;;;;;21.10;69.10;;;;;;6121964;23;19905;-85
2023/06/12 07:30:11;;;;;;;;;;;21.10;69.20;;;;;;6123146;23;19905;-85
2023/06/12 07:32:37;;;;;;;;;;;21.20;69.20;;;;;;6121896;23;19912;-84
2023/06/12 07:35:03;;;;;;;;;;;21.20;69.00;;;;;;6124094;23;19960;-85
2023/06/12 07:37:35;;;;;;;;;;;21.20;69.10;;;;;;6124105;23;19905;-85
2023/06/12 07:40:00;;;;;;;;;;;21.30;68.90;;;;;;6123258;23;19913;-85
2023/06/12 07:42:26;;;;;;;;;;;21.30;68.90;;;;;;6123510;23;20036;-84
2023/06/12 07:44:51;;;;;;;;;;;21.30;69.00;;;;;;6123152;23;20238;-85
2023/06/12 07:47:18;;;;;;;;;;;21.40;68.70;;;;;;6123795;23;19913;-85
2023/06/12 07:49:44;;;;;;;;;;;21.40;68.50;;;;;;6121550;23;19983;-85
2023/06/12 07:52:10;;;;;;;;;;;21.50;68.20;;;;;;6123688;23;19971;-84
2023/06/12 07:54:35;;;;;;;;;;;21.50;68.00;;;;;;6123802;23;19912;-85
2023/06/12 07:57:01;;;;;;;;;;;21.50;67.90;;;;;;6121853;23;19912;-85
2023/06/12 07:59:32;;;;;;;;;;;21.60;67.70;;;;;;6123677;23;19912;-85
2023/06/12 08:01:59;;;;;;;;;;;21.60;67.70;;;;;;6123987;23;20306;-84
2023/06/12 08:04:25;;;;;;;;;;;21.70;67.40;;;;;;6123387;23;19905;-84
2023/06/12 08:06:51;;;;;;;;;;;21.70;67.10;;;;;;6123338;23;19913;-85
2023/06/12 08:09:16;;;;;;;;;;;21.70;66.70;;;;;;6123693;23;19905;-85
2023/06/12 08:11:42;;;;;;;;;;;21.80;65.60;;;;;;6123388;23;19905;-85
2023/06/12 08:14:08;;;;;;;;;;;21.70;64.50;;;;;;6123431;23;19905;-85
2023/06/12 08:16:33;;;;;;;;;;;21.80;64.60;;;;;;6123515;23;19956;-85
2023/06/12 08:18:59;;;;;;;;;;;21.80;64.30;;;;;;6123294;23;19912;-85
2023/06/12 08:21:27;;;;;;;;;;;21.80;64.20;;;;;;6123097;23;19909;-86
2023/06/12 08:23:52;;;;;;;;;;;21.90;63.30;;;;;;6121615;23;19905;-86
2023/06/12 08:26:18;;;;;;;;;;;21.90;62.80;;;;;;6121397;23;19944;-86
2023/06/12 08:28:48;;;;;;;;;;;21.90;62.40;;;;;;6121674;23;19988;-85
2023/06/12 08:31:13;;;;;;;;;;;21.90;62.70;;;;;;6120721;23;19917;-86
2023/06/12 08:33:39;;;;;;;;;;;22.00;61.70;;;;;;6098473;23;19905;-86
2023/06/12 08:36:04;;;;;;;;;;;22.00;61.80;;;;;;6124327;23;20031;-85
2023/06/12 08:38:30;;;;;;;;;;;22.00;62.00;;;;;;6125133;23;19913;-85
2023/06/12 08:40:57;;;;;;;;;;;22.00;61.10;;;;;;6123815;23;19913;-85
2023/06/12 08:43:23;;;;;;;;;;;22.10;60.90;;;;;;6124167;23;19904;-85
2023/06/12 08:45:50;;;;;;;;;;;22.10;60.50;;;;;;6097611;23;19912;-86
2023/06/12 08:48:17;;;;;;;;;;;22.10;59.90;;;;;;6123817;23;19905;-86
2023/06/12 08:50:43;;;;;;;;;;;22.10;59.60;;;;;;6098232;23;19905;-86
2023/06/12 08:53:09;;;;;;;;;;;22.10;58.90;;;;;;6074927;23;19909;-86
2023/06/12 08:55:39;;;;;;;;;;;22.20;58.30;;;;;;6124763;23;20246;-85
2023/06/12 08:58:08;;;;;;;;;;;22.20;58.50;;;;;;6098458;23;20004;-85
2023/06/12 09:00:34;;;;;;;;;;;22.20;57.60;;;;;;6097752;23;19980;-85
2023/06/12 09:03:00;;;;;;;;;;;22.20;56.40;;;;;;6124424;23;19913;-85
2023/06/12 09:05:29;;;;;;;;;;;22.20;56.90;;;;;;6124603;23;19912;-85
2023/06/12 09:07:57;;;;;;;;;;;22.20;57.10;;;;;;6125155;23;20346;-86
2023/06/12 09:10:22;;;;;;;;;;;22.20;57.10;;;;;;6098594;23;19905;-85
2023/06/12 09:13:04;;;;;;;;;;;22.20;57.00;;;;;;6132445;23;19912;-96
2023/06/12 09:20:52;;;;;;;;;;;22.20;57.70;;;;;;6146107;23;19925;-95
2023/06/12 09:23:19;;;;;;;;;;;22.20;58.00;;;;;;6138566;23;20320;-95
2023/06/12 09:25:50;;;;;;;;;;;22.20;58.20;;;;;;6120029;23;19912;-96
2023/06/12 09:28:22;;;;;;;;;;;22.20;58.20;;;;;;6122498;23;19916;-96
2023/06/12 09:30:52;;;;;;;;;;;22.20;58.30;;;;;;6124008;23;19909;-96
2023/06/12 09:36:21;;;;;;;;;;;22.20;58.60;;;;;;6121067;23;19912;-96
2023/06/12 09:39:09;;;;;;;;;;;22.20;58.60;;;;;;6115633;23;19944;-96
2023/06/12 09:44:29;;;;;;;;;;;22.20;58.80;;;;;;6106482;23;19928;-96
2023/06/12 09:52:31;;;;;;;;;;;22.20;58.90;;;;;;6141322;23;19921;31
2023/06/12 09:54:57;;;;;;;;;;;22.20;58.90;;;;;;6089275;23;19980;-96
2023/06/12 09:57:50;;;;;;;;;;;;;;;;;;;;;
2023/06/12 10:13:30;;;;;;;;;;;22.20;59.50;;;;;;6172084;23;19924;-96
2023/06/12 10:15:59;;;;;;;;;;;22.20;59.00;;;;;;6144934;23;19912;-94
2023/06/12 10:18:26;;;;;;;;;;;22.20;59.00;;;;;;6161459;23;20246;-95
2023/06/12 10:20:58;;;;;;;;;;;22.20;59.10;;;;;;6145906;23;19921;-96
2023/06/12 10:26:03;;;;;;;;;;;22.20;59.10;;;;;;6143175;23;19927;-96
2023/06/12 10:31:32;;;;;;;;;;;22.20;59.20;;;;;;6141344;23;19921;-96
2023/06/12 10:34:13;;;;;;;;;;;22.20;59.20;;;;;;6106168;23;19912;-94
2023/06/12 10:36:58;;;;;;;;;;;22.10;59.30;;;;;;6087809;23;19980;-95
2023/06/12 10:39:37;;;;;;;;;;;22.10;59.30;;;;;;6170389;23;19915;-96
2023/06/12 11:06:00;;;;;;;;;;;21.90;59.80;;;;;;6184158;23;19982;-96
2023/06/12 11:08:31;;;;;;;;;;;21.90;59.70;;;;;;6148208;23;19921;-96
2023/06/12 11:10:58;;;;;;;;;;;21.90;59.80;;;;;;6113027;23;19899;-96
2023/06/12 11:16:02;;;;;;;;;;;21.80;59.90;;;;;;6122593;23;20337;-96
2023/06/12 11:18:31;;;;;;;;;;;21.90;60.00;;;;;;6089950;23;19928;-96
2023/06/12 11:26:07;;;;;;;;;;;21.80;60.10;;;;;;6146714;23;19925;-96
2023/06/12 11:28:53;;;;;;;;;;;21.70;60.00;;;;;;6172414;23;19913;-95
2023/06/12 11:41:40;;;;;;;;;;;21.60;60.10;;;;;;6129352;23;19905;-96
2023/06/12 11:44:09;;;;;;;;;;;21.60;60.10;;;;;;6106157;23;19961;-95
2023/06/12 12:00:40;;;;;;;;;;;21.60;60.30;;;;;;6147115;23;20362;-86
2023/06/12 12:03:08;;;;;;;;;;;21.50;58.80;;;;;;6153364;23;19911;-88
2023/06/12 12:05:35;;;;;;;;;;;21.60;57.60;;;;;;6153764;23;19908;-88
2023/06/12 12:08:03;;;;;;;;;;;21.60;56.90;;;;;;6154194;23;19905;-90
2023/06/12 12:10:29;;;;;;;;;;;21.70;57.00;;;;;;6156033;23;19911;-90
2023/06/12 12:12:58;;;;;;;;;;;21.70;56.30;;;;;;6156675;23;19983;-87
2023/06/12 12:15:23;;;;;;;;;;;21.70;56.00;;;;;;6157610;23;19912;-88
2023/06/12 12:17:49;;;;;;;;;;;21.70;55.70;;;;;;6157843;23;19905;-91
2023/06/12 12:20:16;;;;;;;;;;;21.70;55.60;;;;;;6157178;23;19951;-86
2023/06/12 12:22:42;;;;;;;;;;;21.70;55.60;;;;;;6157136;23;20002;-88
2023/06/12 12:25:08;;;;;;;;;;;21.70;55.90;;;;;;6156026;23;19908;-89
2023/06/12 12:27:34;;;;;;;;;;;21.70;55.70;;;;;;6155252;23;19928;-88
2023/06/12 12:30:00;;;;;;;;;;;21.70;55.00;;;;;;6156529;23;19905;-87
2023/06/12 12:32:25;;;;;;;;;;;21.70;54.80;;;;;;6154998;23;19943;-88
2023/06/12 12:34:51;;;;;;;;;;;21.70;54.50;;;;;;6155738;23;19904;-88
2023/06/12 12:37:16;;;;;;;;;;;21.70;54.60;;;;;;6157099;23;19920;-88
2023/06/12 12:39:41;;;;;;;;;;;21.70;54.80;;;;;;6155003;23;19915;-87
2023/06/12 12:42:07;;;;;;;;;;;21.60;54.60;;;;;;6154461;23;19943;-88
2023/06/12 12:44:32;;;;;;;;;;;21.60;54.80;;;;;;6154204;23;19905;-88
2023/06/12 12:46:58;;;;;;;;;;;21.70;55.10;;;;;;6154342;23;19905;-88
2023/06/12 12:49:23;;;;;;;;;;;21.70;56.00;;;;;;6152222;23;19915;-89
2023/06/12 12:51:49;;;;;;;;;;;21.70;55.50;;;;;;6152431;23;19909;-88
2023/06/12 12:54:15;;;;;;;;;;;21.70;54.90;;;;;;6153646;23;19987;-88
2023/06/12 12:56:41;;;;;;;;;;;21.60;54.40;;;;;;6154466;23;19904;-89
2023/06/12 12:59:06;;;;;;;;;;;21.70;54.30;;;;;;6152157;23;19912;-88
2023/06/12 13:01:32;;;;;;;;;;;21.70;54.30;;;;;;6151979;23;19912;-90
2023/06/12 13:03:57;;;;;;;;;;;21.70;54.40;;;;;;6154179;23;20273;-87
2023/06/12 13:06:23;;;;;;;;;;;21.70;54.40;;;;;;6154157;23;19940;-89
2023/06/12 13:08:49;;;;;;;;;;;21.70;54.10;;;;;;6152341;23;19904;-87
2023/06/12 13:11:14;;;;;;;;;;;21.70;53.60;;;;;;6153168;23;19909;-91
2023/06/12 13:13:40;;;;;;;;;;;21.70;53.50;;;;;;6152440;23;19911;-88
2023/06/12 13:16:06;;;;;;;;;;;21.70;53.20;;;;;;6152885;23;20311;-88
2023/06/12 13:18:32;;;;;;;;;;;21.60;53.30;;;;;;6152302;23;19908;-87
2023/06/12 13:20:57;;;;;;;;;;;21.60;53.60;;;;;;6154015;23;19920;-89
2023/06/12 13:23:23;;;;;;;;;;;21.60;53.40;;;;;;6152550;23;19904;-88
2023/06/12 13:25:49;;;;;;;;;;;21.60;53.30;;;;;;6152589;23;20010;-87
2023/06/12 13:28:16;;;;;;;;;;;21.60;53.50;;;;;;6153682;23;20270;-87
2023/06/12 13:30:42;;;;;;;;;;;21.60;53.40;;;;;;6154398;23;19912;-89
2023/06/12 13:33:07;;;;;;;;;;;21.80;53.60;;;;;;6154510;23;19909;-88
2023/06/12 13:35:33;;;;;;;;;;;21.70;53.40;;;;;;6152280;23;20062;-89
2023/06/12 13:37:58;;;;;;;;;;;21.80;53.00;;;;;;6154586;23;19928;-87
2023/06/12 13:40:24;;;;;;;;;;;21.60;52.60;;;;;;6153585;23;19905;-88
2023/06/12 13:42:50;;;;;;;;;;;21.90;52.60;;;;;;6154300;23;19999;-89
2023/06/12 13:45:16;;;;;;;;;;;21.90;52.50;;;;;;6152131;23;19905;-88
2023/06/12 13:47:42;;;;;;;;;;;21.60;52.30;;;;;;6154055;23;19911;-88
2023/06/12 13:50:10;;;;;;;;;;;21.60;52.40;;;;;;6151457;23;19919;-89
2023/06/12 13:52:39;;;;;;;;;;;21.60;52.30;;;;;;6151782;23;19955;-88
2023/06/12 13:55:05;;;;;;;;;;;21.60;52.20;;;;;;6150994;23;19912;-88
2023/06/12 13:57:31;;;;;;;;;;;21.60;52.20;;;;;;6151386;23;19908;-88
2023/06/12 13:59:56;;;;;;;;;;;21.60;51.90;;;;;;6153773;23;19919;-89
2023/06/12 14:02:22;;;;;;;;;;;22.30;52.50;;;;;;6152726;23;19916;-87
2023/06/12 14:04:47;;;;;;;;;;;21.60;52.50;;;;;;6153449;23;20368;-89
2023/06/12 14:07:13;;;;;;;;;;;21.60;52.30;;;;;;6154572;23;19908;-89
2023/06/12 14:09:39;;;;;;;;;;;21.60;52.30;;;;;;6152829;23;20277;-88
2023/06/12 14:12:05;;;;;;;;;;;22.30;52.60;;;;;;6155806;23;19905;-88
2023/06/12 14:14:31;;;;;;;;;;;21.60;52.40;;;;;;6155216;23;19927;-89
2023/06/12 14:16:56;;;;;;;;;;;21.60;52.40;;;;;;6154636;23;20322;-89
2023/06/12 14:19:22;;;;;;;;;;;21.60;52.60;;;;;;6153422;23;19960;-90
2023/06/12 14:21:47;;;;;;;;;;;22.20;53.00;;;;;;6154219;23;19917;-88
2023/06/12 14:24:13;;;;;;;;;;;21.90;53.00;;;;;;6153475;23;19940;-87
2023/06/12 14:26:38;;;;;;;;;;;21.60;52.90;;;;;;6153429;23;20314;-88
2023/06/12 14:29:04;;;;;;;;;;;21.60;53.10;;;;;;6152359;23;19905;-88
2023/06/12 14:31:29;;;;;;;;;;;21.60;53.10;;;;;;6153570;23;20226;-88
2023/06/12 14:33:55;;;;;;;;;;;21.60;52.90;;;;;;6152038;23;19905;-88
2023/06/12 14:36:20;;;;;;;;;;;21.60;53.00;;;;;;6148712;23;19912;-89
2023/06/12 14:38:46;;;;;;;;;;;21.60;52.90;;;;;;6152057;23;19905;-89
2023/06/12 14:41:11;;;;;;;;;;;21.60;52.60;;;;;;6151665;23;19918;-89
2023/06/12 14:43:37;;;;;;;;;;;21.60;52.70;;;;;;6150076;23;19909;-88
2023/06/12 14:46:03;;;;;;;;;;;21.60;52.30;;;;;;6153010;23;19905;-88
2023/06/12 14:48:28;;;;;;;;;;;21.80;52.50;;;;;;6153645;23;20250;-86
2023/06/12 14:50:54;;;;;;;;;;;21.60;52.60;;;;;;6153201;23;19959;-89
2023/06/12 14:53:19;;;;;;;;;;;21.60;52.70;;;;;;6153311;23;19992;-88
2023/06/12 14:55:45;;;;;;;;;;;21.60;52.60;;;;;;6151695;23;19904;-89
2023/06/12 14:58:11;;;;;;;;;;;22.00;52.80;;;;;;6150614;23;19955;-87
2023/06/12 15:00:37;;;;;;;;;;;21.60;52.40;;;;;;6152582;23;19921;-87
2023/06/12 15:03:02;;;;;;;;;;;21.60;52.50;;;;;;6153620;23;20397;-86
2023/06/12 15:05:28;;;;;;;;;;;21.60;52.60;;;;;;6152722;23;19932;-86
2023/06/12 15:07:54;;;;;;;;;;;21.60;52.50;;;;;;6153718;23;19905;-89
2023/06/12 15:10:19;;;;;;;;;;;21.60;52.30;;;;;;6151694;23;19912;-86
2023/06/12 15:12:44;;;;;;;;;;;21.60;52.50;;;;;;6153126;23;20234;-87
2023/06/12 15:15:10;;;;;;;;;;;21.60;52.50;;;;;;6151014;23;19908;-88
2023/06/12 15:17:35;;;;;;;;;;;21.60;52.50;;;;;;6151796;23;19928;-88
2023/06/12 15:20:02;;;;;;;;;;;21.60;52.50;;;;;;6153613;23;20395;-89
2023/06/12 15:22:28;;;;;;;;;;;21.60;52.30;;;;;;6153350;23;19924;-88
2023/06/12 15:24:53;;;;;;;;;;;22.20;52.70;;;;;;6152589;23;20028;-87
2023/06/12 15:27:19;;;;;;;;;;;21.70;52.50;;;;;;6152938;23;19905;-87
2023/06/12 15:29:44;;;;;;;;;;;21.60;52.40;;;;;;6153004;23;19915;-87
2023/06/12 15:32:10;;;;;;;;;;;21.60;52.30;;;;;;6151365;23;20207;-87
2023/06/12 15:34:36;;;;;;;;;;;22.20;52.60;;;;;;6152614;23;19912;-85
2023/06/12 15:37:01;;;;;;;;;;;21.90;52.00;;;;;;6152735;23;19905;-88
2023/06/12 15:39:27;;;;;;;;;;;21.60;52.20;;;;;;6150962;23;19932;-86
2023/06/12 15:41:52;;;;;;;;;;;21.60;51.90;;;;;;6151829;23;20314;-87
2023/06/12 15:44:18;;;;;;;;;;;21.60;51.50;;;;;;6154708;23;19916;-87
2023/06/12 15:46:43;;;;;;;;;;;21.60;51.20;;;;;;6154645;23;19909;-85
2023/06/12 15:49:09;;;;;;;;;;;21.60;51.40;;;;;;6152503;23;20278;-88
2023/06/12 15:51:34;;;;;;;;;;;21.60;51.20;;;;;;6154857;23;19905;-87
2023/06/12 15:54:00;;;;;;;;;;;22.10;51.70;;;;;;6154601;23;19911;-87
2023/06/12 15:56:26;;;;;;;;;;;21.80;51.60;;;;;;6153361;23;19959;-87
2023/06/12 15:58:52;;;;;;;;;;;21.50;51.60;;;;;;6152817;23;19955;-88
2023/06/12 16:01:18;;;;;;;;;;;21.60;51.70;;;;;;6154135;23;20215;-89
2023/06/12 16:03:44;;;;;;;;;;;21.60;51.80;;;;;;6153046;23;19995;-85
2023/06/12 16:06:10;;;;;;;;;;;21.60;52.10;;;;;;6156153;23;20289;-87